createdAt,value
2022-09-25T00:01:16.021Z,13.67
2022-09-25T00:03:43.940Z,13.63
2022-09-25T00:06:26.041Z,13.69
2022-09-25T00:08:54.661Z,13.78
2022-09-25T00:11:33.159Z,13.80
2022-09-25T00:14:02.183Z,13.69
2022-09-25T00:16:31.957Z,13.59
2022-09-25T00:19:18.603Z,13.62
2022-09-25T00:21:47.197Z,13.73
2022-09-25T00:24:15.419Z,13.67
2022-09-25T00:26:43.773Z,13.49
2022-09-25T00:29:21.036Z,13.48
2022-09-25T00:31:48.331Z,13.42
2022-09-25T00:34:18.135Z,13.35
2022-09-25T00:36:45.453Z,13.25
2022-09-25T00:39:12.829Z,13.15
2022-09-25T00:41:40.325Z,13.20
2022-09-25T00:44:46.065Z,13.16
2022-09-25T00:47:18.089Z,13.43
2022-09-25T00:49:46.395Z,13.30
2022-09-25T00:52:14.607Z,13.38
2022-09-25T00:54:49.339Z,13.30
2022-09-25T00:57:22.307Z,13.51
2022-09-25T00:59:57.727Z,13.37
2022-09-25T01:02:29.538Z,13.26
2022-09-25T01:05:05.097Z,13.29
2022-09-25T01:07:37.103Z,13.35
2022-09-25T01:10:08.404Z,13.37
2022-09-25T01:12:45.165Z,13.48
2022-09-25T01:15:15.333Z,13.46
2022-09-25T01:18:03.920Z,13.37
2022-09-25T01:20:49.084Z,13.29
2022-09-25T01:23:30.244Z,13.41
2022-09-25T01:26:47.171Z,13.36
2022-09-25T01:29:37.170Z,13.26
2022-09-25T01:32:14.273Z,13.22
2022-09-25T01:35:07.107Z,13.15
2022-09-25T01:37:49.042Z,13.06
2022-09-25T01:40:19.298Z,13.05
2022-09-25T01:42:53.278Z,12.91
2022-09-25T01:45:36.946Z,12.87
2022-09-25T01:48:08.194Z,13.00
2022-09-25T01:50:43.395Z,13.09
2022-09-25T01:53:16.390Z,13.16
2022-09-25T01:55:58.309Z,13.06
2022-09-25T01:58:32.326Z,13.03
2022-09-25T02:01:06.881Z,13.08
2022-09-25T02:03:44.441Z,13.08
2022-09-25T02:06:17.246Z,12.99
2022-09-25T02:09:03.650Z,12.95
2022-09-25T02:11:43.405Z,12.92
2022-09-25T02:14:46.843Z,12.94
2022-09-25T02:17:43.692Z,12.90
2022-09-25T02:20:29.430Z,13.04
2022-09-25T02:23:13.991Z,12.92
2022-09-25T02:25:46.455Z,12.84
2022-09-25T02:28:13.845Z,12.73
2022-09-25T02:30:41.341Z,12.98
2022-09-25T02:33:09.725Z,12.99
2022-09-25T02:35:38.468Z,12.96
2022-09-25T02:38:08.635Z,12.85
2022-09-25T02:40:48.633Z,12.92
2022-09-25T02:43:29.428Z,12.86
2022-09-25T02:46:21.808Z,12.66
2022-09-25T02:48:57.237Z,12.63
2022-09-25T02:51:40.638Z,12.68
2022-09-25T02:54:21.952Z,12.68
2022-09-25T02:57:06.845Z,12.63
2022-09-25T02:59:40.158Z,12.51
2022-09-25T03:02:10.024Z,12.55
2022-09-25T03:04:39.306Z,12.55
2022-09-25T03:07:07.100Z,12.50
2022-09-25T03:09:38.417Z,12.53
2022-09-25T03:12:06.291Z,12.44
2022-09-25T03:14:33.676Z,12.44
2022-09-25T03:17:04.976Z,12.39
2022-09-25T03:19:32.618Z,12.43
2022-09-25T03:22:00.542Z,12.27
2022-09-25T03:24:27.961Z,12.17
2022-09-25T03:26:55.464Z,12.08
2022-09-25T03:29:23.256Z,12.06
2022-09-25T03:31:52.514Z,12.00
2022-09-25T03:34:20.031Z,11.92
2022-09-25T03:36:47.794Z,11.90
2022-09-25T03:39:18.150Z,11.72
2022-09-25T03:41:46.089Z,11.68
2022-09-25T03:44:13.657Z,11.59
2022-09-25T03:46:41.064Z,11.66
2022-09-25T03:49:10.787Z,11.69
2022-09-25T03:51:39.186Z,11.73
2022-09-25T03:54:06.528Z,11.69
2022-09-25T03:56:34.423Z,11.67
2022-09-25T03:59:01.650Z,11.55
2022-09-25T04:01:29.423Z,11.64
2022-09-25T04:03:57.560Z,11.69
2022-09-25T04:06:26.878Z,11.70
2022-09-25T04:08:54.982Z,11.93
2022-09-25T04:11:24.487Z,12.20
2022-09-25T04:13:52.965Z,12.32
2022-09-25T04:16:23.621Z,12.41
2022-09-25T04:18:51.537Z,12.37
2022-09-25T04:21:24.979Z,12.33
2022-09-25T04:24:10.977Z,12.59
2022-09-25T04:26:39.336Z,12.75
2022-09-25T04:29:07.279Z,12.66
2022-09-25T04:31:36.336Z,12.50
2022-09-25T04:34:04.422Z,12.35
2022-09-25T04:36:31.852Z,12.45
2022-09-25T04:38:59.163Z,12.38
2022-09-25T04:41:29.483Z,12.36
2022-09-25T04:43:59.061Z,12.33
2022-09-25T04:46:26.537Z,12.49
2022-09-25T04:48:53.891Z,12.52
2022-09-25T04:51:22.217Z,12.51
2022-09-25T04:53:49.561Z,12.44
2022-09-25T04:56:17.047Z,12.44
2022-09-25T04:58:49.928Z,12.50
2022-09-25T05:01:19.304Z,12.55
2022-09-25T05:03:53.922Z,12.53
2022-09-25T05:06:23.651Z,12.57
2022-09-25T05:08:51.011Z,12.64
2022-09-25T05:11:19.138Z,12.67
2022-09-25T05:13:50.489Z,12.74
2022-09-25T05:16:17.818Z,12.82
2022-09-25T05:18:45.292Z,12.89
2022-09-25T05:21:12.600Z,12.93
2022-09-25T05:23:39.985Z,12.97
2022-09-25T05:26:07.375Z,13.15
2022-09-25T05:28:34.607Z,13.22
2022-09-25T05:31:04.116Z,13.29
2022-09-25T05:33:35.705Z,13.37
2022-09-25T05:36:05.524Z,13.52
2022-09-25T05:38:34.445Z,13.66
2022-09-25T05:41:06.197Z,13.82
2022-09-25T05:43:35.405Z,13.99
2022-09-25T05:46:02.834Z,14.15
2022-09-25T05:48:30.267Z,14.29
2022-09-25T05:50:58.422Z,14.45
2022-09-25T05:53:27.136Z,14.55
2022-09-25T05:55:58.419Z,14.60
2022-09-25T05:58:27.533Z,14.69
2022-09-25T06:00:55.611Z,14.73
2022-09-25T06:03:23.258Z,14.79
2022-09-25T06:05:50.770Z,14.91
2022-09-25T06:08:18.992Z,14.99
2022-09-25T06:10:54.082Z,15.14
2022-09-25T06:13:22.660Z,15.29
2022-09-25T06:15:53.054Z,15.54
2022-09-25T06:18:22.506Z,15.64
2022-09-25T06:20:50.615Z,15.90
2022-09-25T06:23:19.456Z,15.99
2022-09-25T06:25:46.855Z,16.02
2022-09-25T06:28:14.282Z,16.15
2022-09-25T06:30:41.862Z,16.35
2022-09-25T06:33:13.916Z,16.73
2022-09-25T06:35:43.773Z,16.89
2022-09-25T06:38:12.118Z,16.96
2022-09-25T06:40:41.430Z,17.06
2022-09-25T06:43:16.323Z,17.09
2022-09-25T06:45:44.501Z,17.42
2022-09-25T06:48:18.567Z,17.59
2022-09-25T06:50:52.917Z,17.67
2022-09-25T06:53:22.060Z,17.98
2022-09-25T06:55:50.221Z,18.30
2022-09-25T06:58:21.466Z,18.35
2022-09-25T07:00:50.665Z,18.43
2022-09-25T07:03:36.270Z,18.59
2022-09-25T07:06:06.306Z,18.74
2022-09-25T07:08:33.810Z,19.01
2022-09-25T07:11:02.508Z,18.95
2022-09-25T07:13:33.801Z,18.94
2022-09-25T07:16:06.126Z,18.91
2022-09-25T07:18:34.583Z,19.07
2022-09-25T07:21:07.896Z,19.22
2022-09-25T07:23:36.511Z,19.12
2022-09-25T07:26:22.597Z,19.28
2022-09-25T07:28:55.541Z,19.60
2022-09-25T07:31:26.542Z,19.71
2022-09-25T07:33:55.491Z,20.09
2022-09-25T07:36:22.996Z,20.50
2022-09-25T07:38:52.160Z,20.41
2022-09-25T07:41:22.955Z,20.61
2022-09-25T07:46:46.484Z,20.78
2022-09-25T07:49:14.490Z,20.62
2022-09-25T07:51:41.885Z,20.86
2022-09-25T07:54:09.412Z,20.87
2022-09-25T07:56:38.601Z,21.01
2022-09-25T07:59:06.293Z,20.98
2022-09-25T08:01:33.939Z,20.97
2022-09-25T08:04:02.914Z,21.02
2022-09-25T08:06:30.466Z,21.14
2022-09-25T08:08:59.119Z,21.52
2022-09-25T08:11:28.324Z,21.38
2022-09-25T08:13:55.705Z,21.39
2022-09-25T08:16:23.557Z,21.67
2022-09-25T08:18:51.019Z,21.71
2022-09-25T08:21:22.793Z,21.79
2022-09-25T08:23:56.355Z,21.99
2022-09-25T08:26:23.871Z,21.98
2022-09-25T08:28:52.297Z,21.83
2022-09-25T08:31:20.113Z,22.02
2022-09-25T08:36:16.989Z,22.98
2022-09-25T08:38:44.695Z,23.49
2022-09-25T08:41:21.183Z,23.66
2022-09-25T08:44:06.652Z,23.74
2022-09-25T08:47:21.618Z,23.85
2022-09-25T08:50:09.817Z,23.43
2022-09-25T08:52:41.539Z,22.75
2022-09-25T08:55:18.429Z,23.04
2022-09-25T08:57:48.104Z,23.42
2022-09-25T09:00:22.102Z,23.68
2022-09-25T09:02:57.317Z,24.15
2022-09-25T09:05:27.572Z,24.57
2022-09-25T09:08:00.874Z,24.87
2022-09-25T09:10:37.429Z,24.22
2022-09-25T09:13:26.125Z,24.35
2022-09-25T09:16:01.957Z,23.75
2022-09-25T09:18:43.318Z,24.30
2022-09-25T09:21:34.121Z,25.02
2022-09-25T09:24:26.678Z,25.08
2022-09-25T09:27:00.104Z,25.04
2022-09-25T09:29:52.086Z,25.41
2022-09-25T09:32:45.920Z,25.46
2022-09-25T09:35:57.203Z,25.59
2022-09-25T09:38:35.243Z,24.89
2022-09-25T09:41:33.765Z,24.27
2022-09-25T09:44:35.118Z,24.24
2022-09-25T09:47:26.489Z,24.77
2022-09-25T09:50:19.083Z,25.48
2022-09-25T09:52:52.051Z,25.30
2022-09-25T09:55:28.563Z,25.45
2022-09-25T09:58:05.400Z,26.40
2022-09-25T10:00:33.026Z,25.49
2022-09-25T10:03:11.797Z,25.35
2022-09-25T10:06:13.568Z,25.89
2022-09-25T10:08:42.393Z,25.67
2022-09-25T10:11:17.283Z,26.05
2022-09-25T10:13:47.167Z,25.26
2022-09-25T10:16:25.797Z,25.16
2022-09-25T10:18:53.102Z,25.87
2022-09-25T10:21:30.575Z,24.64
2022-09-25T10:23:59.625Z,24.57
2022-09-25T10:26:33.590Z,24.64
2022-09-25T10:29:03.658Z,25.31
2022-09-25T10:31:34.794Z,25.74
2022-09-25T10:34:07.404Z,25.86
2022-09-25T10:36:51.504Z,25.97
2022-09-25T10:39:45.743Z,25.82
2022-09-25T10:43:02.920Z,25.62
2022-09-25T10:45:33.613Z,25.46
2022-09-25T10:48:20.554Z,24.67
2022-09-25T10:51:08.812Z,24.85
2022-09-25T10:53:36.361Z,25.10
2022-09-25T10:56:15.122Z,25.40
2022-09-25T10:58:55.320Z,25.59
2022-09-25T11:01:35.783Z,25.43
2022-09-25T11:04:07.514Z,25.46
2022-09-25T11:06:35.781Z,25.50
2022-09-25T11:09:13.578Z,25.19
2022-09-25T11:11:41.705Z,25.02
2022-09-25T11:14:37.824Z,25.35
2022-09-25T11:17:27.160Z,24.96
2022-09-25T11:20:19.049Z,24.70
2022-09-25T11:23:26.389Z,24.99
2022-09-25T11:26:19.322Z,25.56
2022-09-25T11:29:04.798Z,25.59
2022-09-25T11:31:41.544Z,25.87
2022-09-25T11:34:14.837Z,26.15
2022-09-25T11:36:45.782Z,25.46
2022-09-25T11:39:41.395Z,25.97
2022-09-25T11:42:52.261Z,26.62
2022-09-25T11:45:32.472Z,26.48
2022-09-25T11:48:22.990Z,26.32
2022-09-25T11:51:01.636Z,26.88
2022-09-25T11:53:57.244Z,26.55
2022-09-25T11:56:39.871Z,26.36
2022-09-25T11:59:38.602Z,26.12
2022-09-25T12:02:39.051Z,26.01
2022-09-25T12:05:23.644Z,26.45
2022-09-25T12:08:17.206Z,25.67
2022-09-25T12:10:53.792Z,26.35
2022-09-25T12:13:45.061Z,26.59
2022-09-25T12:16:28.990Z,27.29
2022-09-25T12:19:03.068Z,27.44
2022-09-25T12:21:45.567Z,26.03
2022-09-25T12:24:13.849Z,25.99
2022-09-25T12:26:51.453Z,26.63
2022-09-25T12:29:29.698Z,26.45
2022-09-25T12:32:37.642Z,26.48
2022-09-25T12:35:24.123Z,27.11
2022-09-25T12:38:02.468Z,27.59
2022-09-25T12:40:39.234Z,28.89
2022-09-25T12:43:33.825Z,28.13
2022-09-25T12:46:15.971Z,26.85
2022-09-25T12:49:32.044Z,25.45
2022-09-25T12:52:05.801Z,25.14
2022-09-25T12:54:47.928Z,25.20
2022-09-25T12:57:32.171Z,25.23
2022-09-25T13:00:15.719Z,25.54
2022-09-25T13:03:09.238Z,25.68
2022-09-25T13:05:45.637Z,25.98
2022-09-25T13:08:20.808Z,25.37
2022-09-25T13:11:00.920Z,24.91
2022-09-25T13:13:38.142Z,25.05
2022-09-25T13:16:05.991Z,25.17
2022-09-25T13:18:35.944Z,25.25
2022-09-25T13:21:23.973Z,25.76
2022-09-25T13:23:54.443Z,25.93
2022-09-25T13:26:27.067Z,26.34
2022-09-25T13:29:07.981Z,26.67
2022-09-25T13:31:44.967Z,26.87
2022-09-25T13:34:16.271Z,26.39
2022-09-25T13:36:56.249Z,26.17
2022-09-25T13:39:47.138Z,26.30
2022-09-25T13:42:38.128Z,26.43
2022-09-25T13:45:25.223Z,25.74
2022-09-25T13:48:12.805Z,25.22
2022-09-25T13:50:43.331Z,25.47
2022-09-25T13:53:37.543Z,26.44
2022-09-25T13:56:12.874Z,26.62
2022-09-25T13:59:16.291Z,26.38
2022-09-25T14:01:47.935Z,26.28
2022-09-25T14:04:15.427Z,25.93
2022-09-25T14:06:45.029Z,25.33
2022-09-25T14:09:20.055Z,25.51
2022-09-25T14:11:56.528Z,25.29
2022-09-25T14:14:42.936Z,25.17
2022-09-25T14:17:16.880Z,24.96
2022-09-25T14:19:49.294Z,24.93
2022-09-25T14:22:30.504Z,25.27
2022-09-25T14:24:57.965Z,25.33
2022-09-25T14:27:28.279Z,25.87
2022-09-25T14:30:11.975Z,26.29
2022-09-25T14:32:55.696Z,26.09
2022-09-25T14:35:41.809Z,25.71
2022-09-25T14:38:31.942Z,25.65
2022-09-25T14:41:23.712Z,25.02
2022-09-25T14:44:18.065Z,24.87
2022-09-25T14:46:49.947Z,25.28
2022-09-25T14:49:39.646Z,25.32
2022-09-25T14:52:11.409Z,25.20
2022-09-25T14:54:43.403Z,24.87
2022-09-25T14:57:12.207Z,24.96
2022-09-25T14:59:52.852Z,25.02
2022-09-25T15:02:27.092Z,25.01
2022-09-25T15:04:58.789Z,25.08
2022-09-25T15:07:28.227Z,25.34
2022-09-25T15:09:56.439Z,25.66
2022-09-25T15:12:34.195Z,25.64
2022-09-25T15:15:12.058Z,25.58
2022-09-25T15:17:55.039Z,25.29
2022-09-25T15:20:27.023Z,25.11
2022-09-25T15:22:59.826Z,24.83
2022-09-25T15:25:40.563Z,24.63
2022-09-25T15:28:10.291Z,24.58
2022-09-25T15:30:42.125Z,24.42
2022-09-25T15:33:24.009Z,24.07
2022-09-25T15:35:59.652Z,24.25
2022-09-25T15:38:34.996Z,24.11
2022-09-25T15:41:03.798Z,24.06
2022-09-25T15:43:31.722Z,23.96
2022-09-25T15:46:19.241Z,23.84
2022-09-25T15:48:58.136Z,23.63
2022-09-25T15:51:30.861Z,23.37
2022-09-25T15:53:59.369Z,23.27
2022-09-25T15:56:29.835Z,23.13
2022-09-25T15:59:01.813Z,23.03
2022-09-25T16:01:53.968Z,22.95
2022-09-25T16:04:42.664Z,22.86
2022-09-25T16:07:32.310Z,22.70
2022-09-25T16:10:03.533Z,22.67
2022-09-25T16:12:42.838Z,22.52
2022-09-25T16:15:31.792Z,22.39
2022-09-25T16:18:05.713Z,22.21
2022-09-25T16:20:36.823Z,22.14
2022-09-25T16:23:07.400Z,22.05
2022-09-25T16:25:37.646Z,21.98
2022-09-25T16:28:29.162Z,21.91
2022-09-25T16:31:01.489Z,21.89
2022-09-25T16:33:52.062Z,21.83
2022-09-25T16:36:19.885Z,21.59
2022-09-25T16:39:23.560Z,21.62
2022-09-25T16:41:51.684Z,21.52
2022-09-25T16:44:20.571Z,21.38
2022-09-25T16:47:20.750Z,21.27
2022-09-25T16:49:49.740Z,21.14
2022-09-25T16:52:20.816Z,21.06
2022-09-25T16:54:53.309Z,21.01
2022-09-25T16:57:22.817Z,20.95
2022-09-25T16:59:50.707Z,20.79
2022-09-25T17:02:36.295Z,21.01
2022-09-25T17:05:17.984Z,21.04
2022-09-25T17:07:50.773Z,20.96
2022-09-25T17:10:23.855Z,20.94
2022-09-25T17:12:54.135Z,20.79
2022-09-25T17:15:23.800Z,20.73
2022-09-25T17:17:54.557Z,20.53
2022-09-25T17:20:26.759Z,20.42
2022-09-25T17:22:55.112Z,20.19
2022-09-25T17:25:45.231Z,20.19
2022-09-25T17:28:13.391Z,20.10
2022-09-25T17:30:45.362Z,20.10
2022-09-25T17:33:18.193Z,19.91
2022-09-25T17:35:53.593Z,19.86
2022-09-25T17:38:20.773Z,19.87
2022-09-25T17:40:52.529Z,19.80
2022-09-25T17:43:20.770Z,19.67
2022-09-25T17:45:51.172Z,19.80
2022-09-25T17:48:26.364Z,19.81
2022-09-25T17:51:00.360Z,19.58
2022-09-25T17:53:32.994Z,19.62
2022-09-25T17:56:01.735Z,19.84
2022-09-25T17:58:32.618Z,19.78
2022-09-25T18:01:01.989Z,19.91
2022-09-25T18:03:31.181Z,19.90
2022-09-25T18:06:01.973Z,19.78
2022-09-25T18:08:32.393Z,19.79
2022-09-25T18:11:00.010Z,19.90
2022-09-25T18:13:27.749Z,19.88
2022-09-25T18:16:02.295Z,19.82
2022-09-25T18:18:48.341Z,19.82
2022-09-25T18:21:34.664Z,19.68
2022-09-25T18:24:02.384Z,19.61
2022-09-25T18:26:31.576Z,19.55
2022-09-25T18:28:59.307Z,19.41
2022-09-25T18:31:27.062Z,19.28
2022-09-25T18:33:55.391Z,19.41
2022-09-25T18:36:23.234Z,19.42
2022-09-25T18:38:50.635Z,19.41
2022-09-25T18:41:18.112Z,19.42
2022-09-25T18:43:45.624Z,19.39
2022-09-25T18:46:13.436Z,19.38
2022-09-25T18:48:46.278Z,19.48
2022-09-25T18:51:14.541Z,19.55
2022-09-25T18:53:42.110Z,19.57
2022-09-25T18:56:09.872Z,19.56
2022-09-25T18:58:37.382Z,19.50
2022-09-25T19:01:07.789Z,19.45
2022-09-25T19:03:40.089Z,19.45
2022-09-25T19:06:10.675Z,19.41
2022-09-25T19:08:38.269Z,19.41
2022-09-25T19:11:14.181Z,19.32
2022-09-25T19:13:44.312Z,19.33
2022-09-25T19:16:11.859Z,19.29
2022-09-25T19:18:39.275Z,19.24
2022-09-25T19:21:07.039Z,19.23
2022-09-25T19:23:39.142Z,19.22
2022-09-25T19:26:06.722Z,18.99
2022-09-25T19:28:35.109Z,19.13
2022-09-25T19:31:06.148Z,19.03
2022-09-25T19:33:36.266Z,19.08
2022-09-25T19:36:07.751Z,19.02
2022-09-25T19:38:37.496Z,18.93
2022-09-25T19:41:13.065Z,18.84
2022-09-25T19:43:40.779Z,18.88
2022-09-25T19:46:08.723Z,18.74
2022-09-25T19:48:36.534Z,18.65
2022-09-25T19:51:08.300Z,18.60
2022-09-25T19:53:36.795Z,18.56
2022-09-25T19:56:04.264Z,18.50
2022-09-25T19:58:38.489Z,18.52
2022-09-25T20:01:14.560Z,18.51
2022-09-25T20:03:42.298Z,18.44
2022-09-25T20:06:12.182Z,18.40
2022-09-25T20:08:40.144Z,18.57
2022-09-25T20:11:22.248Z,18.54
2022-09-25T20:13:51.637Z,18.27
2022-09-25T20:16:25.423Z,18.40
2022-09-25T20:18:58.033Z,18.42
2022-09-25T20:21:27.159Z,18.56
2022-09-25T20:23:56.977Z,18.61
2022-09-25T20:26:25.496Z,18.49
2022-09-25T20:29:01.266Z,18.60
2022-09-25T20:31:31.126Z,18.54
2022-09-25T20:33:58.922Z,18.46
2022-09-25T20:36:26.465Z,18.38
2022-09-25T20:38:56.206Z,18.41
2022-09-25T20:41:25.356Z,18.38
2022-09-25T20:43:56.085Z,18.39
2022-09-25T20:46:24.683Z,18.54
2022-09-25T20:48:53.653Z,18.45
2022-09-25T20:51:27.321Z,18.43
2022-09-25T20:54:01.164Z,18.44
2022-09-25T20:56:32.281Z,18.43
2022-09-25T20:59:01.183Z,18.51
2022-09-25T21:01:32.028Z,18.62
2022-09-25T21:04:01.035Z,18.54
2022-09-25T21:06:32.807Z,18.59
2022-09-25T21:09:02.742Z,18.51
2022-09-25T21:11:31.966Z,18.39
2022-09-25T21:14:02.935Z,18.46
2022-09-25T21:16:32.821Z,18.46
2022-09-25T21:19:04.472Z,18.55
2022-09-25T21:21:33.524Z,18.53
2022-09-25T21:24:02.799Z,18.56
2022-09-25T21:26:31.798Z,18.57
2022-09-25T21:29:02.436Z,18.51
2022-09-25T21:31:36.904Z,18.54
2022-09-25T21:34:06.108Z,18.54
2022-09-25T21:36:33.867Z,18.56
2022-09-25T21:39:02.070Z,18.44
2022-09-25T21:41:30.650Z,18.47
2022-09-25T21:44:00.675Z,18.38
2022-09-25T21:46:29.243Z,18.39
2022-09-25T21:48:59.241Z,18.33
2022-09-25T21:51:29.808Z,18.34
2022-09-25T21:53:57.593Z,18.17
2022-09-25T21:56:30.216Z,18.38
2022-09-25T21:58:58.330Z,18.40
2022-09-25T22:01:28.397Z,18.45
2022-09-25T22:03:57.889Z,18.48
2022-09-25T22:06:35.337Z,18.49
2022-09-25T22:09:06.692Z,18.50
2022-09-25T22:11:35.009Z,18.41
2022-09-25T22:14:02.430Z,18.46
2022-09-25T22:16:32.941Z,18.60
2022-09-25T22:19:12.232Z,18.64
2022-09-25T22:21:40.520Z,18.61
2022-09-25T22:24:09.230Z,18.51
2022-09-25T22:26:38.660Z,18.41
2022-09-25T22:29:06.851Z,18.63
2022-09-25T22:31:36.401Z,18.63
2022-09-25T22:34:08.604Z,18.73
2022-09-25T22:36:36.716Z,18.76
2022-09-25T22:39:05.728Z,18.72
2022-09-25T22:41:33.671Z,18.68
2022-09-25T22:44:03.199Z,18.72
2022-09-25T22:46:31.131Z,18.74
2022-09-25T22:48:58.687Z,18.69
2022-09-25T22:51:26.577Z,18.80
2022-09-25T22:53:55.198Z,18.83
2022-09-25T22:56:28.605Z,18.93
2022-09-25T22:58:58.581Z,19.03
2022-09-25T23:01:38.761Z,19.08
2022-09-25T23:04:10.309Z,19.08
2022-09-25T23:06:38.748Z,19.07
2022-09-25T23:09:10.821Z,19.18
2022-09-25T23:11:38.360Z,19.29
2022-09-25T23:14:08.187Z,19.39
2022-09-25T23:16:35.998Z,19.30
2022-09-25T23:19:04.346Z,19.37
2022-09-25T23:21:32.468Z,19.33
2022-09-25T23:24:02.436Z,19.35
2022-09-25T23:26:30.371Z,19.36
2022-09-25T23:29:04.373Z,19.47
2022-09-25T23:31:33.173Z,19.32
2022-09-25T23:34:02.026Z,19.42
2022-09-25T23:36:30.551Z,19.61
2022-09-25T23:39:01.156Z,19.66
2022-09-25T23:41:31.709Z,19.66
2022-09-25T23:44:00.946Z,19.78
2022-09-25T23:46:31.287Z,19.73
2022-09-25T23:48:59.873Z,19.77
2022-09-25T23:51:27.801Z,19.80
2022-09-25T23:53:58.345Z,19.80
2022-09-25T23:56:29.607Z,19.82
2022-09-25T23:58:58.630Z,19.93
